createdAt,value
2023-04-26T00:01:48.614Z,1.15
2023-04-26T00:04:18.564Z,1.08
2023-04-26T00:06:49.405Z,1.90
2023-04-26T00:09:20.712Z,1.23
2023-04-26T00:11:50.408Z,1.10
2023-04-26T00:14:20.201Z,1.40
2023-04-26T00:16:52.583Z,1.33
2023-04-26T00:19:22.302Z,1.20
2023-04-26T00:21:52.034Z,1.25
2023-04-26T00:24:21.711Z,1.10
2023-04-26T00:26:51.390Z,1.20
2023-04-26T00:29:21.074Z,1.35
2023-04-26T00:31:53.347Z,1.23
2023-04-26T00:34:23.291Z,1.08
2023-04-26T00:36:53.389Z,0.88
2023-04-26T00:39:23.160Z,1.17
2023-04-26T00:41:52.921Z,1.35
2023-04-26T00:44:22.628Z,1.05
2023-04-26T00:46:56.538Z,1.30
2023-04-26T00:49:28.716Z,1.40
2023-04-26T00:51:58.511Z,1.70
2023-04-26T00:54:28.511Z,1.60
2023-04-26T00:56:58.517Z,1.42
2023-04-26T00:59:29.553Z,1.42
2023-04-26T01:02:02.180Z,1.05
2023-04-26T01:04:32.015Z,0.93
2023-04-26T01:07:03.364Z,1.38
2023-04-26T01:09:36.849Z,1.13
2023-04-26T01:12:09.003Z,1.35
2023-04-26T01:14:39.446Z,1.10
2023-04-26T01:17:11.767Z,1.33
2023-04-26T01:19:50.207Z,1.20
2023-04-26T01:22:19.856Z,1.23
2023-04-26T01:24:54.164Z,1.58
2023-04-26T01:27:23.860Z,1.50
2023-04-26T01:29:54.157Z,1.30
2023-04-26T01:32:23.955Z,1.35
2023-04-26T01:34:53.630Z,1.92
2023-04-26T01:37:23.312Z,1.40
2023-04-26T01:39:55.984Z,1.83
2023-04-26T01:42:25.655Z,1.80
2023-04-26T01:44:55.397Z,1.80
2023-04-26T01:47:26.555Z,1.63
2023-04-26T01:49:56.444Z,1.40
2023-04-26T01:52:26.428Z,1.80
2023-04-26T01:54:58.700Z,1.70
2023-04-26T01:57:29.961Z,1.42
2023-04-26T01:59:59.632Z,1.70
2023-04-26T02:02:29.477Z,1.30
2023-04-26T02:04:59.591Z,1.70
2023-04-26T02:07:30.003Z,1.70
2023-04-26T02:10:02.283Z,1.55
2023-04-26T02:12:32.268Z,2.13
2023-04-26T02:15:02.174Z,1.30
2023-04-26T02:17:32.727Z,1.80
2023-04-26T02:20:02.521Z,1.83
2023-04-26T02:22:32.278Z,1.92
2023-04-26T02:25:05.575Z,2.10
2023-04-26T02:27:36.161Z,1.63
2023-04-26T02:30:06.195Z,1.88
2023-04-26T02:32:36.692Z,1.92
2023-04-26T02:35:08.080Z,2.10
2023-04-26T02:37:38.316Z,2.15
2023-04-26T02:40:13.920Z,1.80
2023-04-26T02:45:14.588Z,1.80
2023-04-26T02:47:44.934Z,1.75
2023-04-26T02:50:14.871Z,1.95
2023-04-26T02:52:44.609Z,1.67
2023-04-26T02:55:17.493Z,1.75
2023-04-26T02:57:47.225Z,1.70
2023-04-26T03:00:17.339Z,1.50
2023-04-26T03:02:47.391Z,2.00
2023-04-26T03:05:17.687Z,1.83
2023-04-26T03:07:47.372Z,1.73
2023-04-26T03:10:19.961Z,1.67
2023-04-26T03:12:49.748Z,1.70
2023-04-26T03:15:19.733Z,1.42
2023-04-26T03:17:49.604Z,1.83
2023-04-26T03:20:19.630Z,2.25
2023-04-26T03:22:50.038Z,1.80
2023-04-26T03:25:22.526Z,1.80
2023-04-26T03:27:52.325Z,1.88
2023-04-26T03:30:22.354Z,1.83
2023-04-26T03:32:52.857Z,1.83
2023-04-26T03:35:22.558Z,2.20
2023-04-26T03:37:53.501Z,2.13
2023-04-26T03:40:26.882Z,1.58
2023-04-26T03:42:56.702Z,1.90
2023-04-26T03:45:27.031Z,2.35
2023-04-26T03:47:56.942Z,2.15
2023-04-26T03:50:26.984Z,1.90
2023-04-26T03:52:56.701Z,2.40
2023-04-26T03:55:29.605Z,2.33
2023-04-26T03:57:59.339Z,2.03
2023-04-26T04:00:29.908Z,2.00
2023-04-26T04:02:59.817Z,2.05
2023-04-26T04:05:29.870Z,2.10
2023-04-26T04:08:00.991Z,2.00
2023-04-26T04:10:33.409Z,2.70
2023-04-26T04:13:03.153Z,1.90
2023-04-26T04:15:33.279Z,2.08
2023-04-26T04:18:03.350Z,1.88
2023-04-26T04:20:33.207Z,2.10
2023-04-26T04:23:04.597Z,1.83
2023-04-26T04:25:37.518Z,2.45
2023-04-26T04:28:11.429Z,2.35
2023-04-26T04:30:41.556Z,2.17
2023-04-26T04:33:11.274Z,2.05
2023-04-26T04:35:41.148Z,2.47
2023-04-26T04:38:11.223Z,2.40
2023-04-26T04:40:43.781Z,1.88
2023-04-26T04:43:14.779Z,2.70
2023-04-26T04:45:44.494Z,2.17
2023-04-26T04:48:14.620Z,2.30
2023-04-26T04:50:44.894Z,2.50
2023-04-26T04:53:15.057Z,1.60
2023-04-26T04:55:47.545Z,1.92
2023-04-26T04:58:19.352Z,2.00
2023-04-26T05:00:49.049Z,2.65
2023-04-26T05:03:44.765Z,2.42
2023-04-26T05:06:14.544Z,2.67
2023-04-26T05:08:44.290Z,2.35
2023-04-26T05:11:16.638Z,2.70
2023-04-26T05:13:46.505Z,2.20
2023-04-26T05:16:16.562Z,2.53
2023-04-26T05:18:46.587Z,2.22
2023-04-26T05:21:17.208Z,1.95
2023-04-26T05:23:47.138Z,2.03
2023-04-26T05:26:20.368Z,2.03
2023-04-26T05:29:12.962Z,2.17
2023-04-26T05:31:57.431Z,2.50
2023-04-26T05:34:56.030Z,2.60
2023-04-26T05:37:25.806Z,2.00
2023-04-26T05:39:55.583Z,2.22
2023-04-26T05:42:27.926Z,2.08
2023-04-26T05:45:00.298Z,2.30
2023-04-26T05:47:31.068Z,2.25
2023-04-26T05:50:00.873Z,2.42
2023-04-26T05:52:31.267Z,2.42
2023-04-26T05:55:02.428Z,2.25
2023-04-26T05:57:34.836Z,2.53
2023-04-26T06:00:09.597Z,2.55
2023-04-26T06:02:46.431Z,2.40
2023-04-26T06:05:20.891Z,2.38
2023-04-26T06:07:50.816Z,2.00
2023-04-26T06:10:20.890Z,2.08
2023-04-26T06:12:53.245Z,2.60
2023-04-26T06:15:24.760Z,1.90
2023-04-26T06:17:54.561Z,2.72
2023-04-26T06:20:25.024Z,2.40
2023-04-26T06:22:54.718Z,2.40
2023-04-26T06:25:24.522Z,2.28
2023-04-26T06:27:56.790Z,2.15
2023-04-26T06:30:26.533Z,2.25
2023-04-26T06:32:59.161Z,1.85
2023-04-26T06:35:29.186Z,1.70
2023-04-26T06:37:59.064Z,2.08
2023-04-26T06:40:29.840Z,2.33
2023-04-26T06:43:02.102Z,1.77
2023-04-26T06:45:47.599Z,2.15
2023-04-26T06:48:17.453Z,2.15
2023-04-26T06:50:48.448Z,1.85
2023-04-26T06:53:18.413Z,2.17
2023-04-26T06:55:48.151Z,2.20
2023-04-26T06:58:21.404Z,1.83
2023-04-26T07:00:51.078Z,1.58
2023-04-26T07:03:21.204Z,2.75
2023-04-26T07:05:51.202Z,2.30
2023-04-26T07:08:21.138Z,1.50
2023-04-26T07:10:51.907Z,1.98
2023-04-26T07:13:24.235Z,1.92
2023-04-26T07:15:53.937Z,1.60
2023-04-26T07:18:23.693Z,1.83
2023-04-26T07:20:53.340Z,3.00
2023-04-26T07:23:23.036Z,1.95
2023-04-26T07:25:52.753Z,1.92
2023-04-26T07:28:25.049Z,2.13
2023-04-26T07:30:54.749Z,1.83
2023-04-26T07:33:24.590Z,2.67
2023-04-26T07:35:58.944Z,2.67
2023-04-26T07:38:28.980Z,1.67
2023-04-26T07:40:58.857Z,2.10
2023-04-26T07:43:33.143Z,1.92
2023-04-26T07:46:03.945Z,2.20
2023-04-26T07:48:33.830Z,1.80
2023-04-26T07:51:10.621Z,1.88
2023-04-26T07:53:41.140Z,1.95
2023-04-26T07:56:12.232Z,2.40
2023-04-26T07:58:44.680Z,1.63
2023-04-26T08:01:16.336Z,1.80
2023-04-26T08:03:47.824Z,2.83
2023-04-26T08:06:18.120Z,2.03
2023-04-26T08:08:50.851Z,2.05
2023-04-26T08:11:21.008Z,1.75
2023-04-26T08:13:53.451Z,2.05
2023-04-26T08:16:23.458Z,2.33
2023-04-26T08:18:53.216Z,2.42
2023-04-26T08:21:23.361Z,2.20
2023-04-26T08:23:53.424Z,2.00
2023-04-26T08:26:23.475Z,1.58
2023-04-26T08:28:55.731Z,2.30
2023-04-26T08:31:25.584Z,2.83
2023-04-26T08:33:55.306Z,1.52
2023-04-26T08:36:25.104Z,1.80
2023-04-26T08:38:56.701Z,2.15
2023-04-26T08:41:28.606Z,1.63
2023-04-26T08:44:04.854Z,1.65
2023-04-26T08:46:39.798Z,1.55
2023-04-26T08:49:21.166Z,1.93
2023-04-26T08:51:51.575Z,1.83
2023-04-26T08:54:22.903Z,1.55
2023-04-26T08:56:52.813Z,1.80
2023-04-26T08:59:26.062Z,1.35
2023-04-26T09:01:56.564Z,1.40
2023-04-26T09:04:26.643Z,1.60
2023-04-26T09:07:01.350Z,1.48
2023-04-26T09:09:31.907Z,2.35
2023-04-26T09:12:03.444Z,1.58
2023-04-26T09:14:35.698Z,1.30
2023-04-26T09:17:05.577Z,1.50
2023-04-26T09:19:38.742Z,1.30
2023-04-26T09:22:09.431Z,1.33
2023-04-26T09:24:52.988Z,1.60
2023-04-26T09:27:23.348Z,1.17
2023-04-26T09:30:06.080Z,1.05
2023-04-26T09:32:52.545Z,1.42
2023-04-26T09:35:30.145Z,1.50
2023-04-26T09:38:07.891Z,1.35
2023-04-26T09:40:45.056Z,1.40
2023-04-26T09:43:16.760Z,1.35
2023-04-26T09:45:51.604Z,1.90
2023-04-26T09:48:23.449Z,1.70
2023-04-26T09:50:55.184Z,1.75
2023-04-26T09:53:31.184Z,1.10
2023-04-26T09:56:10.518Z,1.48
2023-04-26T09:58:42.333Z,1.00
2023-04-26T10:01:18.082Z,1.40
2023-04-26T10:03:48.678Z,1.88
2023-04-26T10:06:19.124Z,1.60
2023-04-26T10:08:48.796Z,1.38
2023-04-26T10:11:18.994Z,1.35
2023-04-26T10:13:48.720Z,1.02
2023-04-26T10:16:21.793Z,1.60
2023-04-26T10:18:51.870Z,1.27
2023-04-26T10:21:28.382Z,1.38
2023-04-26T10:23:59.757Z,1.73
2023-04-26T10:26:52.161Z,1.35
2023-04-26T10:29:22.409Z,1.58
2023-04-26T10:32:18.659Z,1.25
2023-04-26T10:35:17.294Z,1.40
2023-04-26T10:38:14.181Z,1.48
2023-04-26T10:40:45.866Z,1.20
2023-04-26T10:43:30.791Z,1.48
2023-04-26T10:46:00.527Z,1.40
2023-04-26T10:48:34.601Z,1.10
2023-04-26T10:51:14.771Z,1.17
2023-04-26T10:54:04.333Z,1.10
2023-04-26T10:56:55.747Z,1.10
2023-04-26T10:59:39.613Z,1.35
2023-04-26T11:02:13.782Z,1.30
2023-04-26T11:04:58.868Z,1.10
2023-04-26T11:07:39.559Z,1.35
2023-04-26T11:10:12.631Z,1.33
2023-04-26T11:12:44.892Z,1.65
2023-04-26T11:15:15.457Z,1.30
2023-04-26T11:17:45.312Z,1.33
2023-04-26T11:20:21.462Z,1.00
2023-04-26T11:22:51.706Z,1.83
2023-04-26T11:25:21.423Z,1.40
2023-04-26T11:27:51.143Z,1.00
2023-04-26T11:30:21.574Z,2.20
2023-04-26T11:32:51.340Z,1.33
2023-04-26T11:35:24.982Z,1.33
2023-04-26T11:37:54.888Z,1.40
2023-04-26T11:40:24.671Z,1.60
2023-04-26T11:42:54.711Z,1.00
2023-04-26T11:45:24.526Z,1.10
2023-04-26T11:47:54.478Z,1.77
2023-04-26T11:50:28.158Z,3.03
2023-04-26T11:52:58.637Z,2.28
2023-04-26T11:55:32.237Z,1.42
2023-04-26T11:58:03.405Z,1.33
2023-04-26T12:00:33.178Z,1.30
2023-04-26T12:03:11.284Z,1.25
2023-04-26T12:05:43.772Z,1.40
2023-04-26T12:08:14.350Z,1.20
2023-04-26T12:10:44.056Z,1.90
2023-04-26T12:13:17.622Z,1.65
2023-04-26T12:15:50.547Z,1.77
2023-04-26T12:18:21.573Z,1.80
2023-04-26T12:21:01.478Z,1.70
2023-04-26T12:23:40.229Z,1.88
2023-04-26T12:26:12.220Z,1.38
2023-04-26T12:28:42.225Z,1.48
2023-04-26T12:31:12.111Z,1.40
2023-04-26T12:33:41.869Z,1.30
2023-04-26T12:36:16.029Z,1.45
2023-04-26T12:38:45.720Z,2.38
2023-04-26T12:41:15.364Z,1.45
2023-04-26T12:43:45.169Z,1.65
2023-04-26T12:46:14.918Z,2.00
2023-04-26T12:48:44.666Z,1.50
2023-04-26T12:51:16.999Z,1.77
2023-04-26T12:53:46.717Z,1.52
2023-04-26T12:56:16.482Z,1.15
2023-04-26T12:58:46.294Z,1.40
2023-04-26T13:01:16.665Z,1.40
2023-04-26T13:03:46.905Z,1.58
2023-04-26T13:06:19.361Z,1.85
2023-04-26T13:08:49.035Z,1.48
2023-04-26T13:11:18.708Z,5.88
2023-04-26T13:13:49.666Z,1.90
2023-04-26T13:16:19.462Z,1.85
2023-04-26T13:18:49.247Z,3.88
2023-04-26T13:21:21.604Z,3.28
2023-04-26T13:23:51.272Z,2.00
2023-04-26T13:26:21.073Z,1.80
2023-04-26T13:28:51.589Z,1.73
2023-04-26T13:31:21.360Z,1.55
2023-04-26T13:33:52.461Z,1.70
2023-04-26T13:36:24.725Z,1.80
2023-04-26T13:38:54.481Z,1.83
2023-04-26T13:41:24.753Z,1.67
2023-04-26T13:43:54.456Z,1.83
2023-04-26T13:46:24.149Z,2.08
2023-04-26T13:48:53.875Z,1.65
2023-04-26T13:51:27.157Z,1.83
2023-04-26T13:53:56.872Z,2.00
2023-04-26T13:56:26.515Z,1.90
2023-04-26T13:58:58.145Z,1.73
2023-04-26T14:01:27.960Z,2.00
2023-04-26T14:03:57.931Z,1.70
2023-04-26T14:06:30.410Z,1.80
2023-04-26T14:09:00.120Z,1.30
2023-04-26T14:11:30.089Z,1.90
2023-04-26T14:13:59.893Z,1.80
2023-04-26T14:16:29.805Z,1.67
2023-04-26T14:18:59.515Z,1.30
2023-04-26T14:21:31.780Z,1.52
2023-04-26T14:24:01.550Z,1.40
2023-04-26T14:26:31.675Z,1.50
2023-04-26T14:29:01.610Z,1.30
2023-04-26T14:31:32.090Z,1.65
2023-04-26T14:34:02.065Z,1.52
2023-04-26T14:36:34.309Z,2.00
2023-04-26T14:39:04.219Z,1.75
2023-04-26T14:41:34.090Z,1.50
2023-04-26T14:44:03.835Z,1.33
2023-04-26T14:46:33.566Z,1.40
2023-04-26T14:49:03.294Z,2.25
2023-04-26T14:51:35.605Z,1.63
2023-04-26T14:54:05.668Z,1.85
2023-04-26T14:56:36.559Z,1.75
2023-04-26T14:59:08.188Z,2.05
2023-04-26T15:01:37.904Z,1.67
2023-04-26T15:04:08.034Z,1.75
2023-04-26T15:06:40.501Z,1.73
2023-04-26T15:09:11.629Z,1.48
2023-04-26T15:11:41.408Z,1.45
2023-04-26T15:14:11.239Z,2.00
2023-04-26T15:16:41.155Z,2.10
2023-04-26T15:19:11.088Z,2.00
2023-04-26T15:21:43.378Z,1.77
2023-04-26T15:24:13.094Z,1.45
2023-04-26T15:26:42.935Z,1.40
2023-04-26T15:29:12.648Z,2.15
2023-04-26T15:31:42.873Z,1.85
2023-04-26T15:34:12.582Z,1.92
2023-04-26T15:36:44.886Z,1.58
2023-04-26T15:39:14.592Z,1.20
2023-04-26T15:41:45.436Z,1.45
2023-04-26T15:44:15.203Z,1.40
2023-04-26T15:46:44.956Z,1.35
2023-04-26T15:49:14.712Z,1.50
2023-04-26T15:51:47.157Z,1.50
2023-04-26T15:54:16.902Z,1.30
2023-04-26T15:56:47.223Z,1.38
2023-04-26T15:59:17.441Z,1.45
2023-04-26T16:01:47.260Z,1.55
2023-04-26T16:04:17.318Z,1.92
2023-04-26T16:06:49.824Z,1.42
2023-04-26T16:09:25.520Z,1.73
2023-04-26T16:11:56.146Z,1.60
2023-04-26T16:14:26.454Z,1.40
2023-04-26T16:16:56.158Z,1.52
2023-04-26T16:19:25.967Z,1.70
2023-04-26T16:21:58.362Z,1.70
2023-04-26T16:24:28.169Z,1.80
2023-04-26T16:26:58.110Z,1.88
2023-04-26T16:29:28.090Z,1.83
2023-04-26T16:31:57.948Z,1.20
2023-04-26T16:34:27.928Z,1.85
2023-04-26T16:37:00.193Z,1.40
2023-04-26T16:39:29.977Z,1.60
2023-04-26T16:42:00.034Z,1.48
2023-04-26T16:44:29.807Z,1.48
2023-04-26T16:46:59.855Z,2.50
2023-04-26T16:49:30.357Z,1.27
2023-04-26T16:52:02.789Z,1.40
2023-04-26T16:54:32.599Z,1.65
2023-04-26T16:57:03.813Z,2.58
2023-04-26T16:59:33.491Z,2.55
2023-04-26T17:02:03.208Z,2.70
2023-04-26T17:04:33.324Z,2.70
2023-04-26T17:07:06.243Z,2.20
2023-04-26T17:09:37.990Z,1.80
2023-04-26T17:12:09.130Z,1.67
2023-04-26T17:14:38.961Z,1.50
2023-04-26T17:17:08.715Z,1.60
2023-04-26T17:19:38.465Z,1.65
2023-04-26T17:22:11.459Z,1.50
2023-04-26T17:24:41.269Z,2.10
2023-04-26T17:27:10.948Z,1.80
2023-04-26T17:29:40.732Z,2.10
2023-04-26T17:32:10.685Z,2.72
2023-04-26T17:34:40.719Z,2.90
2023-04-26T17:37:13.167Z,3.50
2023-04-26T17:39:42.890Z,2.83
2023-04-26T17:42:12.579Z,2.53
2023-04-26T17:44:42.255Z,2.22
2023-04-26T17:47:12.056Z,3.10
2023-04-26T17:49:41.866Z,1.70
2023-04-26T17:52:14.117Z,2.20
2023-04-26T17:54:43.946Z,1.92
2023-04-26T17:57:13.742Z,1.92
2023-04-26T17:59:43.416Z,2.55
2023-04-26T18:02:13.257Z,2.40
2023-04-26T18:04:43.249Z,2.30
2023-04-26T18:07:15.919Z,3.00
2023-04-26T18:09:45.664Z,2.40
2023-04-26T18:12:15.606Z,2.20
2023-04-26T18:14:47.120Z,2.30
2023-04-26T18:17:17.897Z,2.63
2023-04-26T18:19:47.798Z,2.15
2023-04-26T18:22:20.543Z,2.47
2023-04-26T18:24:50.319Z,2.47
2023-04-26T18:27:20.053Z,2.30
2023-04-26T18:29:49.786Z,2.08
2023-04-26T18:32:19.612Z,2.10
2023-04-26T18:34:49.789Z,2.15
2023-04-26T18:37:22.152Z,2.55
2023-04-26T18:39:51.820Z,1.98
2023-04-26T18:42:21.607Z,2.13
2023-04-26T18:44:51.300Z,1.98
2023-04-26T18:47:21.311Z,2.45
2023-04-26T18:49:51.214Z,2.55
2023-04-26T18:52:23.470Z,2.30
2023-04-26T18:54:53.145Z,1.70
2023-04-26T18:57:23.264Z,2.00
2023-04-26T18:59:53.429Z,1.90
2023-04-26T19:02:23.202Z,2.13
2023-04-26T19:04:53.140Z,2.33
2023-04-26T19:07:25.994Z,2.10
2023-04-26T19:09:57.511Z,1.80
2023-04-26T19:12:28.844Z,1.95
2023-04-26T19:14:58.721Z,1.77
2023-04-26T19:17:29.637Z,1.95
2023-04-26T19:19:59.566Z,2.10
2023-04-26T19:22:32.667Z,2.35
2023-04-26T19:25:02.488Z,2.45
2023-04-26T19:27:32.302Z,3.35
2023-04-26T19:30:02.175Z,3.17
2023-04-26T19:32:32.246Z,3.08
2023-04-26T19:35:02.220Z,3.20
2023-04-26T19:37:34.641Z,3.55
2023-04-26T19:40:06.135Z,5.18
2023-04-26T19:42:35.915Z,3.45
2023-04-26T19:45:05.754Z,3.03
2023-04-26T19:47:35.810Z,2.55
2023-04-26T19:50:05.800Z,2.50
2023-04-26T19:52:38.202Z,2.35
2023-04-26T19:55:10.593Z,2.65
2023-04-26T19:57:41.182Z,2.60
2023-04-26T20:00:13.245Z,2.50
2023-04-26T20:02:43.185Z,2.72
2023-04-26T20:05:13.456Z,2.60
2023-04-26T20:07:46.478Z,3.03
2023-04-26T20:10:16.388Z,3.10
2023-04-26T20:12:46.169Z,2.50
2023-04-26T20:15:16.254Z,3.17
2023-04-26T20:17:46.621Z,2.75
2023-04-26T20:20:16.876Z,3.47
2023-04-26T20:22:49.391Z,2.80
2023-04-26T20:25:20.031Z,3.15
2023-04-26T20:27:50.277Z,2.80
2023-04-26T20:30:20.173Z,3.58
2023-04-26T20:32:50.030Z,2.75
2023-04-26T20:35:20.180Z,2.72
2023-04-26T20:37:52.437Z,2.40
2023-04-26T20:40:23.109Z,2.70
2023-04-26T20:42:52.819Z,2.88
2023-04-26T20:45:22.545Z,3.00
2023-04-26T20:47:52.265Z,2.75
2023-04-26T20:50:22.073Z,2.75
2023-04-26T20:52:54.529Z,2.72
2023-04-26T20:55:24.551Z,2.60
2023-04-26T20:57:54.250Z,3.95
2023-04-26T21:00:24.078Z,3.47
2023-04-26T21:02:53.870Z,3.63
2023-04-26T21:05:24.289Z,4.32
2023-04-26T21:07:56.625Z,3.55
2023-04-26T21:10:26.302Z,3.35
2023-04-26T21:12:56.073Z,3.15
2023-04-26T21:15:25.802Z,2.90
2023-04-26T21:17:55.614Z,2.83
2023-04-26T21:20:25.332Z,2.85
2023-04-26T21:22:57.618Z,2.80
2023-04-26T21:25:27.981Z,2.65
2023-04-26T21:27:58.910Z,2.35
2023-04-26T21:30:28.665Z,2.95
2023-04-26T21:32:58.446Z,2.70
2023-04-26T21:35:28.531Z,2.92
2023-04-26T21:38:00.872Z,2.63
2023-04-26T21:40:30.542Z,2.70
2023-04-26T21:43:05.302Z,3.15
2023-04-26T21:45:35.500Z,3.22
2023-04-26T21:48:05.292Z,3.03
2023-04-26T21:50:35.046Z,3.00
2023-04-26T21:53:07.644Z,3.08
2023-04-26T21:55:37.410Z,2.83
2023-04-26T21:58:07.184Z,3.00
2023-04-26T22:00:37.571Z,2.90
2023-04-26T22:03:07.779Z,2.90
2023-04-26T22:05:37.765Z,2.60
2023-04-26T22:08:10.620Z,2.50
2023-04-26T22:10:40.640Z,2.90
2023-04-26T22:13:10.634Z,2.63
2023-04-26T22:15:40.312Z,2.58
2023-04-26T22:18:10.463Z,2.50
2023-04-26T22:20:40.269Z,2.80
2023-04-26T22:23:13.060Z,2.78
2023-04-26T22:25:42.790Z,2.92
2023-04-26T22:28:12.625Z,2.83
2023-04-26T22:30:42.528Z,2.78
2023-04-26T22:33:12.548Z,2.65
2023-04-26T22:35:42.381Z,2.47
2023-04-26T22:38:14.663Z,2.55
2023-04-26T22:40:45.089Z,2.72
2023-04-26T22:43:14.963Z,2.78
2023-04-26T22:45:44.676Z,3.10
2023-04-26T22:48:14.398Z,2.72
2023-04-26T22:50:44.369Z,2.50
2023-04-26T22:53:16.902Z,2.50
2023-04-26T22:55:46.846Z,2.88
2023-04-26T22:58:17.358Z,2.90
2023-04-26T23:00:47.165Z,2.60
2023-04-26T23:03:17.100Z,3.20
2023-04-26T23:05:47.396Z,2.88
2023-04-26T23:08:20.067Z,3.10
2023-04-26T23:10:49.803Z,3.25
2023-04-26T23:13:19.768Z,3.00
2023-04-26T23:15:49.561Z,2.90
2023-04-26T23:18:19.814Z,3.63
2023-04-26T23:20:49.500Z,2.83
2023-04-26T23:23:21.825Z,2.85
2023-04-26T23:25:51.592Z,2.85
2023-04-26T23:28:21.446Z,2.50
2023-04-26T23:30:51.471Z,2.35
2023-04-26T23:33:21.653Z,3.00
2023-04-26T23:35:52.280Z,2.83
2023-04-26T23:38:24.740Z,2.70
2023-04-26T23:40:54.421Z,2.30
2023-04-26T23:43:24.187Z,2.55
2023-04-26T23:45:53.872Z,2.38
2023-04-26T23:48:23.650Z,2.40
2023-04-26T23:50:53.436Z,2.60
2023-04-26T23:53:27.770Z,2.45
2023-04-26T23:55:57.442Z,2.40
2023-04-26T23:58:27.257Z,3.38
